Time;durP1;ratioP1;P1;durP2;ratioP2;P2;SDS_P1;SDS_P2;PMS_P1;PMS_P2;Temp;Humidity;BMP_temperature;BMP_pressure;BME280_temperature;BME280_humidity;BME280_pressure;Samples;Min_cycle;Max_cycle;Signal;HPM_P1;HPM_P2
2023/03/10 00:02:06;;;;;;;23.67;14.90;;;3.50;99.90;;;;;;5057407;28;20499;-73
2023/03/10 00:04:31;;;;;;;25.10;15.32;;;3.30;99.90;;;;;;5060795;28;20033;-73
2023/03/10 00:06:57;;;;;;;24.80;15.60;;;2.90;99.90;;;;;;5060137;28;20094;-72
2023/03/10 00:09:23;;;;;;;21.60;14.80;;;3.40;99.90;;;;;;5058584;28;20302;-72
2023/03/10 00:11:48;;;;;;;21.95;13.85;;;3.50;99.90;;;;;;5058198;28;20319;-72
2023/03/10 00:14:14;;;;;;;24.55;15.38;;;3.00;99.90;;;;;;5057563;28;20566;-72
2023/03/10 00:16:41;;;;;;;22.40;14.75;;;3.00;99.90;;;;;;5058549;28;20045;-72
2023/03/10 00:19:06;;;;;;;25.10;16.10;;;2.90;99.90;;;;;;5058556;28;20107;-72
2023/03/10 00:21:33;;;;;;;21.58;13.98;;;2.90;99.90;;;;;;5057948;28;20687;-73
2023/03/10 00:23:59;;;;;;;21.38;14.45;;;2.80;99.90;;;;;;5060274;28;20079;-73
2023/03/10 00:26:27;;;;;;;21.20;13.90;;;2.80;99.90;;;;;;5057566;28;20122;-73
2023/03/10 00:28:54;;;;;;;20.45;13.77;;;3.40;99.90;;;;;;5059580;28;20032;-73
2023/03/10 00:31:22;;;;;;;21.73;14.52;;;3.50;99.90;;;;;;5041087;28;20074;-73
2023/03/10 00:33:48;;;;;;;23.00;14.70;;;3.30;99.90;;;;;;5057633;28;20075;-72
2023/03/10 00:36:17;;;;;;;21.83;14.65;;;3.10;99.90;;;;;;5057311;28;20091;-72
2023/03/10 00:38:44;;;;;;;22.55;15.07;;;2.90;99.90;;;;;;5058496;28;20418;-72
2023/03/10 00:41:13;;;;;;;18.88;13.30;;;3.00;99.90;;;;;;5056874;28;20372;-72
2023/03/10 00:43:39;;;;;;;21.58;14.27;;;2.90;99.90;;;;;;5059652;28;20081;-72
2023/03/10 00:46:05;;;;;;;22.92;14.80;;;2.90;99.90;;;;;;5057934;28;20438;-72
2023/03/10 00:48:31;;;;;;;23.17;15.02;;;3.40;99.90;;;;;;5057944;28;20086;-72
2023/03/10 00:50:58;;;;;;;21.70;15.20;;;3.50;99.90;;;;;;5054493;28;20052;-72
2023/03/10 00:53:24;;;;;;;24.92;16.63;;;3.00;99.90;;;;;;5058544;28;20131;-72
2023/03/10 00:56:07;;;;;;;23.50;15.52;;;3.00;99.90;;;;;;5056726;28;20048;-72
2023/03/10 00:58:34;;;;;;;22.45;15.40;;;3.40;99.90;;;;;;5059306;28;20516;-72
2023/03/10 01:01:01;;;;;;;23.13;15.55;;;3.50;99.90;;;;;;5057291;28;20094;-72
2023/03/10 01:03:27;;;;;;;24.90;16.45;;;3.40;99.90;;;;;;5058207;28;20044;-72
2023/03/10 01:05:54;;;;;;;21.67;15.27;;;3.10;99.90;;;;;;5058819;28;20661;-73
2023/03/10 01:08:20;;;;;;;21.50;15.18;;;3.10;99.90;;;;;;5056967;28;20053;-73
2023/03/10 01:10:46;;;;;;;24.35;15.77;;;3.30;99.90;;;;;;5059331;28;20040;-73
2023/03/10 01:13:14;;;;;;;19.98;13.85;;;3.80;99.90;;;;;;5043989;28;20141;-73
2023/03/10 01:15:40;;;;;;;17.92;12.45;;;3.20;99.90;;;;;;5060194;28;20044;-73
2023/03/10 01:18:06;;;;;;;18.02;11.80;;;3.80;99.90;;;;;;5060327;28;20148;-73
2023/03/10 01:20:33;;;;;;;16.83;11.13;;;3.50;99.90;;;;;;5061829;28;20044;-72
2023/03/10 01:22:59;;;;;;;14.75;10.68;;;3.50;99.90;;;;;;5060923;28;20461;-72
2023/03/10 01:25:26;;;;;;;13.40;9.45;;;3.90;99.90;;;;;;5063784;28;20041;-72
2023/03/10 01:27:52;;;;;;;13.57;9.48;;;3.90;99.90;;;;;;5060276;28;20041;-72
2023/03/10 01:30:18;;;;;;;12.65;9.02;;;3.90;99.90;;;;;;5066642;28;20025;-72
2023/03/10 01:32:44;;;;;;;14.80;9.95;;;3.40;99.90;;;;;;5061633;28;20044;-73
2023/03/10 01:35:10;;;;;;;13.23;9.65;;;3.40;99.90;;;;;;5061006;28;20077;-72
2023/03/10 01:37:36;;;;;;;11.85;8.75;;;3.90;99.90;;;;;;5061497;28;20047;-72
2023/03/10 01:40:04;;;;;;;13.05;9.30;;;3.30;99.90;;;;;;5060008;28;20412;-73
2023/03/10 01:42:30;;;;;;;12.15;8.85;;;3.30;99.90;;;;;;5059451;28;20063;-72
2023/03/10 01:45:04;;;;;;;13.05;9.10;;;3.70;99.90;;;;;;5060170;28;20126;-72
2023/03/10 01:47:30;;;;;;;13.55;9.35;;;3.70;99.90;;;;;;5061984;28;20147;-73
2023/03/10 01:49:56;;;;;;;13.18;9.10;;;3.50;99.90;;;;;;5043238;28;20136;-72
2023/03/10 01:52:25;;;;;;;13.52;8.98;;;3.90;99.90;;;;;;5060311;28;20087;-73
2023/03/10 01:55:08;;;;;;;12.85;8.63;;;3.40;99.90;;;;;;5061770;28;20062;-72
2023/03/10 01:57:39;;;;;;;13.20;8.55;;;3.40;99.90;;;;;;5060946;28;20041;-73
2023/03/10 02:00:13;;;;;;;12.27;8.65;;;3.60;99.90;;;;;;5058460;28;20112;-73
2023/03/10 02:02:46;;;;;;;12.70;8.75;;;3.80;99.90;;;;;;5058282;28;20114;-73
2023/03/10 02:05:13;;;;;;;12.43;8.68;;;3.80;99.90;;;;;;5078827;28;20037;-73
2023/03/10 02:07:41;;;;;;;13.77;9.57;;;3.50;99.90;;;;;;5062307;28;20047;-73
2023/03/10 02:10:10;;;;;;;13.88;9.15;;;3.90;99.90;;;;;;5060739;28;20452;-71
2023/03/10 02:12:36;;;;;;;15.02;9.90;;;3.50;99.90;;;;;;5060305;28;20036;-73
2023/03/10 02:15:03;;;;;;;14.88;10.23;;;3.50;99.90;;;;;;5042792;28;20494;-72
2023/03/10 02:17:29;;;;;;;14.80;9.85;;;3.90;99.90;;;;;;5061605;28;20045;-72
2023/03/10 02:20:10;;;;;;;13.15;9.63;;;3.60;99.90;;;;;;5043787;28;20084;-73
2023/03/10 02:22:38;;;;;;;15.93;10.88;;;3.50;99.90;;;;;;5043409;28;20045;-72
2023/03/10 02:25:23;;;;;;;14.60;10.18;;;4.00;99.90;;;;;;5042612;28;20504;-73
2023/03/10 02:27:49;;;;;;;13.95;9.95;;;4.00;99.90;;;;;;5041406;28;20059;-73
2023/03/10 02:30:26;;;;;;;15.80;10.68;;;3.60;99.90;;;;;;5029315;28;20040;-73
2023/03/10 02:33:00;;;;;;;13.98;10.43;;;3.50;99.90;;;;;;5042620;28;20045;-73
2023/03/10 02:35:26;;;;;;;13.98;10.00;;;3.50;99.90;;;;;;5043658;28;20103;-71
2023/03/10 02:37:52;;;;;;;15.05;11.10;;;3.90;99.90;;;;;;5042087;28;20048;-72
2023/03/10 02:40:30;;;;;;;14.70;10.45;;;3.70;99.90;;;;;;5061026;28;20036;-72
2023/03/10 02:43:01;;;;;;;17.58;11.65;;;3.90;99.90;;;;;;5041847;28;20075;-73
2023/03/10 02:45:30;;;;;;;16.27;11.38;;;3.40;99.90;;;;;;5044109;28;20496;-72
2023/03/10 02:47:55;;;;;;;14.55;10.48;;;3.80;99.90;;;;;;5040556;28;20048;-72
2023/03/10 02:50:22;;;;;;;16.37;11.30;;;3.50;99.90;;;;;;5026773;28;20411;-72
2023/03/10 02:53:00;;;;;;;15.07;10.35;;;3.40;99.90;;;;;;5041966;28;20313;-73
2023/03/10 02:55:25;;;;;;;14.75;10.25;;;3.40;99.90;;;;;;5044310;28;20056;-73
2023/03/10 02:57:51;;;;;;;15.20;10.48;;;3.70;99.90;;;;;;5044752;28;20052;-72
2023/03/10 03:00:17;;;;;;;17.10;11.00;;;3.80;99.90;;;;;;5043717;28;20028;-72
2023/03/10 03:02:43;;;;;;;14.90;9.93;;;3.20;99.90;;;;;;5026670;28;20390;-73
2023/03/10 03:05:08;;;;;;;16.15;10.75;;;3.20;99.90;;;;;;5042821;28;20434;-73
2023/03/10 03:07:35;;;;;;;17.98;12.00;;;3.60;99.90;;;;;;5043481;28;20048;-73
2023/03/10 03:10:04;;;;;;;16.17;10.98;;;3.70;99.90;;;;;;5041863;28;20058;-72
2023/03/10 03:12:30;;;;;;;17.13;11.32;;;3.20;99.90;;;;;;5042986;28;20044;-73
2023/03/10 03:14:55;;;;;;;16.60;11.60;;;3.30;99.90;;;;;;5058886;28;20193;-73
2023/03/10 03:17:21;;;;;;;12.35;8.80;;;3.70;99.90;;;;;;5058656;28;20311;-72
2023/03/10 03:19:47;;;;;;;17.02;11.20;;;3.60;99.90;;;;;;5076015;28;20129;-73
2023/03/10 03:22:12;;;;;;;19.35;12.35;;;3.70;99.90;;;;;;5060158;28;20091;-72
2023/03/10 03:24:38;;;;;;;17.80;12.18;;;3.70;99.90;;;;;;5057118;28;20060;-73
2023/03/10 03:27:04;;;;;;;15.95;11.38;;;3.50;99.90;;;;;;5058953;28;20043;-72
2023/03/10 03:29:30;;;;;;;19.55;13.55;;;3.70;99.90;;;;;;5058122;28;20036;-72
2023/03/10 03:31:55;;;;;;;20.52;13.98;;;3.60;99.90;;;;;;5058529;28;20062;-72
2023/03/10 03:34:21;;;;;;;19.17;13.25;;;3.10;99.90;;;;;;5042821;28;20049;-73
2023/03/10 03:36:47;;;;;;;19.50;13.05;;;3.10;99.90;;;;;;5041499;28;20051;-72
2023/03/10 03:39:16;;;;;;;19.95;13.05;;;3.70;99.90;;;;;;5062069;28;20071;-73
2023/03/10 03:41:42;;;;;;;20.23;13.90;;;3.10;99.90;;;;;;5043673;28;20036;-72
2023/03/10 03:44:08;;;;;;;18.08;12.35;;;3.10;99.90;;;;;;5042348;28;20481;-72
2023/03/10 03:46:33;;;;;;;21.17;14.13;;;3.70;99.90;;;;;;5058249;28;20094;-72
2023/03/10 03:49:00;;;;;;;18.55;12.80;;;3.20;99.90;;;;;;5025341;28;20037;-73
2023/03/10 03:51:26;;;;;;;18.13;12.90;;;3.70;99.90;;;;;;5057119;28;20045;-72
2023/03/10 03:53:51;;;;;;;17.77;12.57;;;3.20;99.90;;;;;;5056183;28;20106;-72
2023/03/10 03:56:17;;;;;;;18.67;12.82;;;3.20;99.90;;;;;;5042057;28;20710;-72
2023/03/10 03:58:43;;;;;;;20.33;13.68;;;3.20;99.90;;;;;;5039157;28;20447;-72
2023/03/10 04:01:09;;;;;;;20.48;13.73;;;3.80;99.90;;;;;;5057332;28;20461;-72
2023/03/10 04:03:34;;;;;;;18.88;13.25;;;3.30;99.90;;;;;;5041052;28;20032;-73
2023/03/10 04:06:01;;;;;;;21.65;14.43;;;3.50;99.90;;;;;;5057808;28;20111;-73
2023/03/10 04:08:26;;;;;;;20.33;14.13;;;3.50;99.90;;;;;;5058739;28;20045;-73
2023/03/10 04:10:53;;;;;;;22.05;14.57;;;3.30;99.90;;;;;;5058947;28;20044;-73
2023/03/10 04:13:19;;;;;;;20.38;14.38;;;3.30;99.90;;;;;;5057643;28;20053;-73
2023/03/10 04:15:45;;;;;;;21.10;14.38;;;3.60;99.90;;;;;;5057988;28;20446;-73
2023/03/10 04:18:11;;;;;;;19.90;13.55;;;3.80;99.90;;;;;;5044151;28;20047;-72
2023/03/10 04:20:37;;;;;;;20.23;13.82;;;3.30;99.90;;;;;;5056518;28;21545;-73
2023/03/10 04:23:03;;;;;;;20.92;13.88;;;3.80;99.90;;;;;;5061377;28;20075;-73
2023/03/10 04:25:29;;;;;;;18.88;13.10;;;3.80;99.90;;;;;;5058149;28;20072;-73
2023/03/10 04:27:58;;;;;;;;;;;3.40;99.90;;;;;;5056027;28;20052;-73
2023/03/10 04:30:28;;;;;;;20.48;13.20;;;3.80;99.90;;;;;;5057912;28;20279;-73
2023/03/10 04:32:58;;;;;;;19.25;13.10;;;3.80;99.90;;;;;;5056512;28;20484;-73
2023/03/10 04:35:23;;;;;;;20.13;13.88;;;3.20;99.90;;;;;;5043223;28;20040;-73
2023/03/10 04:37:49;;;;;;;20.40;13.10;;;3.80;99.90;;;;;;5058111;28;20488;-73
2023/03/10 04:40:15;;;;;;;20.13;13.37;;;3.60;99.90;;;;;;5042648;28;20139;-73
2023/03/10 04:42:41;;;;;;;20.30;14.07;;;3.10;99.90;;;;;;5061446;28;20294;-73
2023/03/10 04:45:08;;;;;;;19.13;13.43;;;3.10;99.90;;;;;;5062409;28;20044;-73
2023/03/10 04:47:33;;;;;;;;;;;3.80;99.90;;;;;;5044595;28;20048;-73
2023/03/10 04:49:59;;;;;;;22.75;15.35;;;3.10;99.90;;;;;;5061988;28;19931;-73
2023/03/10 04:52:25;;;;;;;22.63;15.15;;;3.10;99.90;;;;;;5049225;28;20044;-72
2023/03/10 04:54:51;;;;;;;24.92;16.02;;;3.40;99.90;;;;;;5064908;28;20036;-72
2023/03/10 04:57:16;;;;;;;24.00;15.65;;;3.70;99.90;;;;;;5047916;28;20135;-71
2023/03/10 04:59:42;;;;;;;26.75;16.15;;;3.40;99.90;;;;;;5062467;28;20450;-72
2023/03/10 05:02:08;;;;;;;28.85;17.38;;;3.50;99.90;;;;;;5030530;28;20060;-72
2023/03/10 05:04:34;;;;;;;27.98;17.70;;;3.00;99.90;;;;;;5045930;28;20033;-72
2023/03/10 05:07:00;;;;;;;24.50;15.68;;;3.60;99.90;;;;;;5051206;28;20048;-71
2023/03/10 05:09:26;;;;;;;33.45;20.33;;;2.90;99.90;;;;;;5061310;28;20125;-72
2023/03/10 05:11:52;;;;;;;30.65;19.02;;;3.40;99.90;;;;;;5064967;28;20061;-73
2023/03/10 05:14:17;;;;;;;37.17;22.45;;;2.90;99.90;;;;;;5042844;28;20541;-73
2023/03/10 05:16:45;;;;;;;30.05;17.95;;;3.10;99.90;;;;;;5061273;28;20036;-74
2023/03/10 05:19:11;;;;;;;37.67;22.48;;;3.60;99.90;;;;;;5062313;28;20124;-73
2023/03/10 05:21:37;;;;;;;34.78;19.98;;;3.10;99.90;;;;;;5046976;28;20119;-73
2023/03/10 05:24:03;;;;;;;31.15;18.45;;;3.40;99.90;;;;;;5063723;28;20048;-73
2023/03/10 05:26:29;;;;;;;37.60;22.30;;;2.80;99.90;;;;;;5060612;28;20072;-73
2023/03/10 05:28:56;;;;;;;38.40;22.80;;;3.60;99.90;;;;;;5062911;28;20061;-73
2023/03/10 05:31:25;;;;;;;45.70;25.52;;;3.60;99.90;;;;;;5062916;28;20048;-73
2023/03/10 05:33:52;;;;;;;38.60;23.67;;;3.50;99.90;;;;;;5061483;28;20473;-74
2023/03/10 05:36:18;;;;;;;40.15;23.40;;;3.50;99.90;;;;;;5045018;28;20451;-73
2023/03/10 05:38:44;;;;;;;35.47;21.52;;;2.90;99.90;;;;;;5061386;28;20045;-73
2023/03/10 05:41:11;;;;;;;40.38;24.45;;;3.00;99.90;;;;;;5043662;28;20036;-72
2023/03/10 05:43:37;;;;;;;41.63;24.92;;;3.10;99.90;;;;;;5062649;28;20407;-73
2023/03/10 05:46:04;;;;;;;38.22;23.33;;;3.10;99.90;;;;;;5048677;28;20392;-72
2023/03/10 05:48:30;;;;;;;36.78;23.10;;;3.20;99.90;;;;;;5038544;28;20106;-72
2023/03/10 05:51:02;;;;;;;37.63;22.52;;;3.00;99.90;;;;;;5061896;28;20076;-72
2023/03/10 05:53:29;;;;;;;35.30;22.48;;;3.70;99.90;;;;;;5063097;28;21767;-72
2023/03/10 05:55:55;;;;;;;32.17;20.42;;;3.30;99.90;;;;;;5061617;28;20143;-73
2023/03/10 05:58:22;;;;;;;33.97;21.20;;;2.90;99.90;;;;;;5058061;28;20068;-71
2023/03/10 06:00:48;;;;;;;33.10;20.00;;;3.20;99.90;;;;;;5061225;28;20037;-72
2023/03/10 06:03:13;;;;;;;25.95;16.02;;;3.70;99.90;;;;;;5062183;28;20104;-72
2023/03/10 06:05:39;;;;;;;31.27;19.20;;;3.40;99.90;;;;;;5062592;28;20080;-72
2023/03/10 06:08:05;;;;;;;30.00;18.75;;;3.60;99.90;;;;;;5041173;28;20393;-71
2023/03/10 06:10:30;;;;;;;29.13;17.77;;;3.30;99.90;;;;;;5060903;28;20130;-71
2023/03/10 06:12:56;;;;;;;27.30;17.13;;;2.80;99.90;;;;;;5059127;28;20395;-72
2023/03/10 06:15:22;;;;;;;28.98;17.23;;;3.00;99.90;;;;;;5041586;28;20321;-72
2023/03/10 06:17:47;;;;;;;26.25;15.75;;;2.80;99.90;;;;;;5059528;28;20492;-72
2023/03/10 06:20:14;;;;;;;25.30;15.20;;;3.10;99.90;;;;;;5061741;28;20036;-72
2023/03/10 06:22:40;;;;;;;;;;;2.80;99.90;;;;;;5058920;28;20079;-71
2023/03/10 06:25:06;;;;;;;21.80;13.48;;;3.60;99.90;;;;;;5060679;28;19972;-71
2023/03/10 06:27:32;;;;;;;20.23;12.70;;;2.90;99.90;;;;;;5063223;28;20032;-71
2023/03/10 06:29:58;;;;;;;21.42;13.63;;;3.30;99.90;;;;;;5059568;28;20392;-72
2023/03/10 06:32:24;;;;;;;18.13;11.95;;;2.80;99.90;;;;;;5047000;28;20582;-72
2023/03/10 06:34:50;;;;;;;21.80;14.38;;;3.50;99.90;;;;;;5062138;28;20036;-72
2023/03/10 06:37:15;;;;;;;21.67;14.30;;;3.60;99.90;;;;;;5060566;28;20139;-72
2023/03/10 06:39:41;;;;;;;24.08;15.45;;;3.20;99.90;;;;;;5026218;28;20044;-72
2023/03/10 06:42:10;;;;;;;20.73;14.15;;;3.60;99.90;;;;;;5058498;28;20067;-72
2023/03/10 06:44:36;;;;;;;22.92;14.43;;;3.60;99.90;;;;;;5063490;28;20044;-72
2023/03/10 06:47:03;;;;;;;21.38;14.50;;;3.50;99.90;;;;;;5058865;28;20376;-72
2023/03/10 06:49:32;;;;;;;21.25;13.77;;;3.20;99.90;;;;;;5057698;28;20499;-72
2023/03/10 06:51:59;;;;;;;22.10;13.77;;;2.80;99.90;;;;;;5060108;28;20036;-72
2023/03/10 06:54:25;;;;;;;;;;;3.10;99.90;;;;;;5055859;28;20041;-72
2023/03/10 06:56:50;;;;;;;22.02;14.05;;;2.70;99.90;;;;;;5060821;28;19924;-71
2023/03/10 06:59:16;;;;;;;19.13;12.82;;;2.80;99.90;;;;;;5063510;28;20045;-71
2023/03/10 07:01:42;;;;;;;19.23;12.20;;;3.70;99.90;;;;;;5046547;28;20131;-71
2023/03/10 07:04:10;;;;;;;18.90;12.32;;;3.00;99.90;;;;;;5060016;28;20464;-71
2023/03/10 07:06:36;;;;;;;20.05;12.30;;;3.20;99.90;;;;;;5061349;28;20036;-71
2023/03/10 07:09:02;;;;;;;18.08;11.55;;;2.80;99.90;;;;;;5061902;28;20036;-71
2023/03/10 07:11:28;;;;;;;19.25;12.60;;;3.70;99.90;;;;;;5066505;28;20043;-72
2023/03/10 07:13:54;;;;;;;22.08;13.65;;;3.80;99.90;;;;;;5062593;28;20048;-72
2023/03/10 07:16:21;;;;;;;20.30;13.30;;;3.80;99.90;;;;;;5029092;28;20062;-72
2023/03/10 07:18:46;;;;;;;;;;;3.80;99.90;;;;;;5062999;28;20387;-72
2023/03/10 07:21:16;;;;;;;20.08;13.20;;;3.70;99.90;;;;;;5058244;28;21286;-72
2023/03/10 07:23:42;;;;;;;21.33;13.55;;;2.90;99.90;;;;;;5058529;28;20076;-72
2023/03/10 07:26:08;;;;;;;22.75;13.55;;;2.90;99.90;;;;;;5058948;28;20037;-72
2023/03/10 07:28:37;;;;;;;24.38;15.43;;;3.90;99.90;;;;;;5059075;28;20049;-72
2023/03/10 07:31:08;;;;;;;24.88;15.98;;;3.70;99.90;;;;;;5060293;28;20045;-72
2023/03/10 07:33:34;;;;;;;24.92;15.93;;;4.00;99.90;;;;;;5061592;28;20041;-72
2023/03/10 07:36:05;;;;;;;28.20;17.77;;;3.40;99.90;;;;;;5058195;28;20032;-72
2023/03/10 07:38:31;;;;;;;29.08;17.88;;;3.10;99.90;;;;;;5058297;28;20037;-72
2023/03/10 07:40:57;;;;;;;30.00;17.40;;;4.00;99.90;;;;;;5060014;28;20481;-72
2023/03/10 07:43:22;;;;;;;25.73;16.17;;;4.10;99.90;;;;;;5066680;28;20047;-72
2023/03/10 07:45:48;;;;;;;21.63;13.77;;;4.00;99.90;;;;;;5042971;28;20537;-72
2023/03/10 07:48:14;;;;;;;29.73;17.43;;;3.20;99.90;;;;;;5055578;28;20146;-71
2023/03/10 07:50:39;;;;;;;26.80;17.07;;;3.20;99.90;;;;;;5060001;28;20322;-72
2023/03/10 07:53:05;;;;;;;28.05;17.20;;;3.20;99.90;;;;;;5041482;28;21347;-72
2023/03/10 07:55:31;;;;;;;28.98;17.88;;;3.50;99.90;;;;;;5059269;28;20048;-72
2023/03/10 07:57:59;;;;;;;27.63;17.42;;;3.70;99.90;;;;;;5040205;28;20036;-71
2023/03/10 08:00:26;;;;;;;26.30;17.30;;;3.40;99.90;;;;;;5060481;28;20041;-72
2023/03/10 08:02:51;;;;;;;27.27;17.63;;;4.10;99.90;;;;;;5063820;28;20044;-72
2023/03/10 08:05:17;;;;;;;28.27;17.57;;;4.00;99.90;;;;;;5060557;28;20044;-72
2023/03/10 08:07:43;;;;;;;25.98;16.90;;;3.20;99.90;;;;;;5056135;28;20375;-72
2023/03/10 08:10:09;;;;;;;27.83;17.05;;;3.20;99.90;;;;;;5068532;28;20123;-72
2023/03/10 08:12:35;;;;;;;;;;;4.00;99.90;;;;;;5065870;28;20083;-72
2023/03/10 08:15:01;;;;;;;29.08;17.55;;;3.90;99.90;;;;;;5066612;28;19920;-72
2023/03/10 08:17:29;;;;;;;26.45;16.13;;;3.90;99.90;;;;;;5062659;28;20044;-72
2023/03/10 08:19:59;;;;;;;28.23;16.95;;;3.50;99.90;;;;;;5057311;28;20075;-71
2023/03/10 08:22:26;;;;;;;28.20;16.80;;;3.30;99.90;;;;;;5062607;28;20313;-71
2023/03/10 08:24:52;;;;;;;;;;;3.20;99.90;;;;;;5066195;28;20463;-71
2023/03/10 08:27:18;;;;;;;27.42;16.63;;;3.50;99.90;;;;;;5046883;28;20361;-71
2023/03/10 08:29:43;;;;;;;30.30;17.73;;;3.60;99.90;;;;;;5066263;28;20055;-71
2023/03/10 08:32:09;;;;;;;31.17;18.85;;;3.30;99.90;;;;;;5068387;28;20468;-71
2023/03/10 08:34:35;;;;;;;30.73;18.38;;;3.30;99.90;;;;;;5047093;28;20051;-71
2023/03/10 08:37:01;;;;;;;31.80;19.13;;;3.90;99.90;;;;;;5044417;28;20036;-72
2023/03/10 08:39:28;;;;;;;30.23;19.02;;;4.10;99.90;;;;;;5065459;28;20048;-71
2023/03/10 08:41:54;;;;;;;27.90;17.10;;;3.40;99.90;;;;;;5047050;28;20032;-72
2023/03/10 08:44:20;;;;;;;28.95;18.85;;;4.20;99.90;;;;;;5064335;28;20036;-71
2023/03/10 08:46:47;;;;;;;30.88;18.25;;;4.10;99.90;;;;;;5062580;28;20041;-71
2023/03/10 08:49:15;;;;;;;29.65;17.63;;;3.70;99.90;;;;;;5052630;28;20151;-71
2023/03/10 08:51:41;;;;;;;28.55;18.02;;;3.80;99.90;;;;;;5063038;28;20038;-71
2023/03/10 08:54:07;;;;;;;;;;;3.80;99.90;;;;;;5067192;28;20074;-72
2023/03/10 08:56:34;;;;;;;27.02;16.52;;;3.80;99.90;;;;;;5073720;28;20363;-72
2023/03/10 08:58:59;;;;;;;29.02;18.10;;;3.60;99.90;;;;;;5069238;28;20110;-72
2023/03/10 09:01:28;;;;;;;32.08;18.15;;;3.50;99.90;;;;;;5067840;28;20040;-72
2023/03/10 09:03:54;;;;;;;29.95;18.73;;;3.80;99.90;;;;;;5066654;28;20051;-71
2023/03/10 09:06:20;;;;;;;32.72;18.85;;;3.60;99.90;;;;;;5063215;28;20041;-71
2023/03/10 09:08:49;;;;;;;31.10;19.25;;;4.00;99.90;;;;;;5068168;28;20063;-72
2023/03/10 09:11:17;;;;;;;30.83;19.15;;;4.20;99.90;;;;;;5070278;28;20113;-72
2023/03/10 09:13:43;;;;;;;31.73;18.90;;;3.80;99.90;;;;;;5073433;28;20531;-71
2023/03/10 09:16:09;;;;;;;29.98;18.13;;;4.00;99.90;;;;;;5060068;28;20124;-72
2023/03/10 09:18:35;;;;;;;31.05;18.58;;;3.80;99.90;;;;;;5054779;28;20062;-71
2023/03/10 09:21:00;;;;;;;33.95;19.98;;;3.60;99.90;;;;;;5037015;28;20041;-70
2023/03/10 09:23:26;;;;;;;30.60;17.52;;;4.10;99.90;;;;;;5037309;28;20089;-71
2023/03/10 09:25:52;;;;;;;28.92;17.38;;;3.70;99.90;;;;;;5078442;28;20177;-71
2023/03/10 09:28:18;;;;;;;26.05;17.20;;;4.00;99.90;;;;;;5056535;28;20041;-71
2023/03/10 09:30:44;;;;;;;30.02;17.25;;;4.00;99.90;;;;;;5040834;28;20039;-71
2023/03/10 09:33:20;;;;;;;26.13;17.13;;;3.70;99.90;;;;;;5055439;28;20040;-71
2023/03/10 09:35:47;;;;;;;24.57;15.57;;;3.60;99.90;;;;;;5069381;28;20040;-71
2023/03/10 09:38:13;;;;;;;22.83;15.63;;;3.60;99.90;;;;;;5054271;28;20391;-70
2023/03/10 09:40:46;;;;;;;23.92;15.25;;;4.00;99.90;;;;;;5056983;28;20059;-71
2023/03/10 09:43:22;;;;;;;25.77;17.63;;;4.00;99.90;;;;;;5060202;28;20044;-71
2023/03/10 09:46:05;;;;;;;26.10;16.00;;;3.40;99.90;;;;;;5056447;28;20043;-71
2023/03/10 09:48:42;;;;;;;28.27;17.27;;;3.80;99.90;;;;;;5081433;28;20044;-71
2023/03/10 09:51:19;;;;;;;28.23;17.08;;;3.80;99.90;;;;;;5044157;28;20131;-70
2023/03/10 09:54:00;;;;;;;26.75;17.38;;;3.90;99.90;;;;;;5064334;28;20048;-71
2023/03/10 09:56:30;;;;;;;27.30;17.02;;;3.50;99.90;;;;;;5050203;28;20045;-71
2023/03/10 09:59:20;;;;;;;27.70;17.35;;;4.10;99.90;;;;;;5040506;28;20052;-71
2023/03/10 10:01:49;;;;;;;27.63;17.20;;;4.10;99.90;;;;;;5036731;28;20045;-71
2023/03/10 10:04:29;;;;;;;27.15;16.85;;;3.90;99.90;;;;;;5065117;28;20409;-71
2023/03/10 10:06:56;;;;;;;28.08;17.42;;;3.60;99.90;;;;;;5034498;28;20115;-71
2023/03/10 10:09:39;;;;;;;25.40;16.33;;;3.70;99.90;;;;;;5037374;28;20051;-71
2023/03/10 10:12:13;;;;;;;26.60;16.58;;;4.10;99.90;;;;;;5034286;28;20045;-71
2023/03/10 10:14:39;;;;;;;27.40;16.63;;;3.60;99.90;;;;;;5049678;28;20045;-71
2023/03/10 10:17:33;;;;;;;25.13;15.25;;;3.70;99.90;;;;;;5063418;28;20045;-71
2023/03/10 10:19:59;;;;;;;26.15;15.95;;;4.00;99.90;;;;;;5063859;28;20427;-71
2023/03/10 10:22:29;;;;;;;26.95;16.23;;;3.50;99.90;;;;;;5049945;28;20048;-71
2023/03/10 10:25:10;;;;;;;27.77;16.50;;;3.80;99.90;;;;;;5064338;28;20045;-71
2023/03/10 10:27:37;;;;;;;25.08;15.88;;;3.40;99.90;;;;;;5047996;28;20045;-71
2023/03/10 10:30:35;;;;;;;24.13;14.18;;;3.40;99.90;;;;;;5063182;28;20055;-71
2023/03/10 10:33:02;;;;;;;;;;;3.40;99.90;;;;;;5064666;28;20044;-71
2023/03/10 10:35:31;;;;;;;26.92;15.85;;;3.70;99.90;;;;;;5065879;28;20280;-71
2023/03/10 10:38:09;;;;;;;26.27;15.93;;;3.80;99.90;;;;;;5066028;28;20131;-71
2023/03/10 10:40:47;;;;;;;24.60;14.77;;;3.80;99.90;;;;;;5049036;28;20044;-72
2023/03/10 10:43:18;;;;;;;24.42;15.57;;;3.90;99.90;;;;;;5064540;28;20045;-71
2023/03/10 10:45:52;;;;;;;25.35;16.48;;;3.30;99.90;;;;;;5064749;28;20037;-71
2023/03/10 10:48:38;;;;;;;25.88;16.58;;;3.40;99.90;;;;;;5062126;28;20105;-72
2023/03/10 10:51:16;;;;;;;26.27;16.38;;;4.00;99.90;;;;;;5063157;28;20052;-72
2023/03/10 10:53:45;;;;;;;26.42;16.05;;;3.60;99.90;;;;;;5047776;28;20092;-72
2023/03/10 10:56:16;;;;;;;26.85;16.85;;;3.60;99.90;;;;;;5064937;28;20075;-71
2023/03/10 10:58:44;;;;;;;27.05;16.65;;;3.50;99.90;;;;;;5064571;28;20488;-71
2023/03/10 11:01:15;;;;;;;25.10;16.30;;;3.60;99.90;;;;;;5065084;28;20071;-71
2023/03/10 11:03:42;;;;;;;25.63;15.70;;;4.10;99.90;;;;;;5063896;28;20047;-71
2023/03/10 11:06:33;;;;;;;23.45;15.23;;;3.80;99.90;;;;;;5064841;28;20135;-71
2023/03/10 11:09:11;;;;;;;27.00;15.85;;;3.80;99.90;;;;;;5062932;28;20507;-71
2023/03/10 11:11:52;;;;;;;25.73;15.90;;;3.90;99.90;;;;;;5064744;28;20055;-71
2023/03/10 11:14:18;;;;;;;27.98;16.33;;;3.50;99.90;;;;;;5082432;28;20143;-71
2023/03/10 11:17:01;;;;;;;26.77;16.67;;;3.50;99.90;;;;;;5068244;28;20448;-71
2023/03/10 11:19:50;;;;;;;27.75;16.70;;;3.70;99.90;;;;;;5066942;28;20036;-71
2023/03/10 11:22:34;;;;;;;28.52;17.27;;;3.60;99.90;;;;;;5050255;28;20088;-71
2023/03/10 11:25:09;;;;;;;26.15;16.40;;;3.60;99.90;;;;;;5060691;28;20037;-71
2023/03/10 11:28:00;;;;;;;29.27;17.30;;;3.90;99.90;;;;;;5058318;28;20080;-71
2023/03/10 11:30:31;;;;;;;25.92;15.48;;;3.50;99.90;;;;;;5063832;28;20459;-71
2023/03/10 11:33:09;;;;;;;27.45;17.40;;;3.60;99.90;;;;;;5062484;28;20059;-71
2023/03/10 11:35:44;;;;;;;27.67;17.30;;;4.00;99.90;;;;;;5060902;28;20779;-71
2023/03/10 11:38:45;;;;;;;26.35;16.80;;;3.80;99.90;;;;;;5056834;28;20519;-71
2023/03/10 11:41:19;;;;;;;28.23;16.90;;;3.90;99.90;;;;;;5056707;28;20041;-72
2023/03/10 11:44:14;;;;;;;28.92;17.65;;;3.50;99.90;;;;;;5060572;28;20033;-72
2023/03/10 11:47:01;;;;;;;28.20;16.75;;;3.80;99.90;;;;;;5058372;28;20123;-71
2023/03/10 11:49:42;;;;;;;28.48;17.10;;;4.10;99.90;;;;;;5039937;28;20547;-72
2023/03/10 11:52:16;;;;;;;27.17;16.42;;;3.70;99.90;;;;;;5058800;28;20045;-72
2023/03/10 11:54:47;;;;;;;22.52;13.32;;;3.70;99.90;;;;;;5060373;28;20119;-72
2023/03/10 11:57:24;;;;;;;27.63;15.93;;;3.60;99.90;;;;;;5058257;28;20179;-72
2023/03/10 12:00:00;;;;;;;;;;;4.10;99.90;;;;;;5059642;28;20494;-72
2023/03/10 12:02:41;;;;;;;24.02;15.50;;;4.20;99.90;;;;;;5063027;28;19928;-70
2023/03/10 12:05:13;;;;;;;28.50;16.33;;;3.50;99.90;;;;;;5056715;28;20148;-72
2023/03/10 12:07:47;;;;;;;27.10;16.67;;;3.60;99.90;;;;;;5047607;28;20508;-72
2023/03/10 12:10:20;;;;;;;27.40;16.85;;;4.20;99.90;;;;;;5048820;28;20441;-72
2023/03/10 12:12:48;;;;;;;23.40;15.18;;;4.20;99.90;;;;;;5058206;28;20486;-72
2023/03/10 12:15:18;;;;;;;24.40;15.95;;;4.10;99.90;;;;;;5057912;28;20623;-73
2023/03/10 12:17:45;;;;;;;26.98;17.30;;;4.00;99.90;;;;;;5064205;28;20052;-73
2023/03/10 12:20:14;;;;;;;25.95;16.30;;;3.70;99.90;;;;;;5046059;28;20044;-73
2023/03/10 12:22:40;;;;;;;24.85;15.98;;;4.20;99.90;;;;;;5052294;28;20040;-72
2023/03/10 12:25:37;;;;;;;18.88;11.68;;;3.90;99.90;;;;;;5063991;28;20125;-72
2023/03/10 12:28:15;;;;;;;26.42;16.10;;;3.90;99.90;;;;;;5066770;28;20499;-72
2023/03/10 12:30:45;;;;;;;25.33;16.63;;;3.70;99.90;;;;;;5068458;28;20064;-72
2023/03/10 12:33:29;;;;;;;26.52;16.50;;;4.00;99.90;;;;;;5068341;28;20452;-73
2023/03/10 12:36:01;;;;;;;25.98;16.17;;;4.20;99.90;;;;;;5068304;28;20084;-72
2023/03/10 12:38:45;;;;;;;25.73;16.45;;;4.20;99.90;;;;;;5066438;28;20041;-73
2023/03/10 12:41:32;;;;;;;26.50;17.15;;;3.80;99.90;;;;;;5063467;28;20068;-73
2023/03/10 12:44:01;;;;;;;24.90;16.20;;;3.90;99.90;;;;;;5064111;28;20072;-72
2023/03/10 12:46:57;;;;;;;24.70;16.63;;;3.50;99.90;;;;;;5068269;28;20079;-72
2023/03/10 12:49:47;;;;;;;26.35;16.60;;;4.20;99.90;;;;;;5081205;28;20051;-72
2023/03/10 12:52:21;;;;;;;26.27;16.83;;;3.90;99.90;;;;;;5056440;28;20048;-72